createdAt,value
2022-08-21T00:01:52.275Z,20.70
2022-08-21T00:04:22.150Z,20.70
2022-08-21T00:06:50.277Z,20.70
2022-08-21T00:09:18.315Z,20.60
2022-08-21T00:11:45.229Z,20.60
2022-08-21T00:14:14.017Z,20.60
2022-08-21T00:16:41.553Z,20.60
2022-08-21T00:19:09.383Z,20.50
2022-08-21T00:21:36.661Z,20.50
2022-08-21T00:24:03.914Z,20.50
2022-08-21T00:26:30.797Z,20.50
2022-08-21T00:28:57.509Z,20.60
2022-08-21T00:31:26.047Z,20.50
2022-08-21T00:33:52.896Z,20.50
2022-08-21T00:36:27.315Z,20.50
2022-08-21T00:38:54.086Z,20.40
2022-08-21T00:41:38.275Z,20.40
2022-08-21T00:44:08.850Z,20.30
2022-08-21T00:46:36.699Z,20.30
2022-08-21T00:49:04.890Z,20.30
2022-08-21T00:51:58.994Z,20.20
2022-08-21T00:54:29.983Z,20.20
2022-08-21T00:57:10.062Z,20.10
2022-08-21T00:59:39.236Z,20.10
2022-08-21T01:02:08.271Z,20.10
2022-08-21T01:04:35.587Z,20.10
2022-08-21T01:07:03.415Z,20.10
2022-08-21T01:09:30.173Z,20.10
2022-08-21T01:11:57.000Z,20.10
2022-08-21T01:14:23.891Z,20.00
2022-08-21T01:16:53.666Z,20.00
2022-08-21T01:19:21.758Z,19.90
2022-08-21T01:21:49.017Z,20.00
2022-08-21T01:24:16.078Z,19.90
2022-08-21T01:26:43.952Z,19.90
2022-08-21T01:29:29.575Z,19.90
2022-08-21T01:31:56.358Z,19.80
2022-08-21T01:34:23.380Z,19.80
2022-08-21T01:36:50.381Z,19.80
2022-08-21T01:39:17.413Z,19.80
2022-08-21T01:41:44.520Z,19.80
2022-08-21T01:44:11.578Z,19.80
2022-08-21T01:46:38.430Z,19.80
2022-08-21T01:49:06.472Z,19.70
2022-08-21T01:51:33.565Z,19.70
2022-08-21T01:54:00.940Z,19.70
2022-08-21T01:56:28.955Z,19.70
2022-08-21T01:58:56.108Z,19.70
2022-08-21T02:01:22.909Z,19.70
2022-08-21T02:03:49.807Z,19.60
2022-08-21T02:06:18.784Z,19.60
2022-08-21T02:08:47.202Z,19.60
2022-08-21T02:11:14.347Z,19.60
2022-08-21T02:13:41.503Z,19.60
2022-08-21T02:16:08.841Z,19.50
2022-08-21T02:18:36.419Z,19.50
2022-08-21T02:21:04.848Z,19.50
2022-08-21T02:23:32.190Z,19.40
2022-08-21T02:26:00.243Z,19.40
2022-08-21T02:28:27.621Z,19.40
2022-08-21T02:30:55.221Z,19.40
2022-08-21T02:33:23.472Z,19.30
2022-08-21T02:35:50.822Z,19.30
2022-08-21T02:38:23.680Z,19.30
2022-08-21T02:40:52.034Z,19.20
2022-08-21T02:43:21.355Z,19.20
2022-08-21T02:45:49.219Z,19.20
2022-08-21T02:48:19.800Z,19.10
2022-08-21T02:50:52.309Z,19.10
2022-08-21T02:53:20.784Z,19.10
2022-08-21T02:55:50.415Z,19.10
2022-08-21T02:58:22.025Z,19.10
2022-08-21T03:00:48.730Z,19.10
2022-08-21T03:03:15.666Z,19.00
2022-08-21T03:05:43.585Z,19.00
2022-08-21T03:08:13.169Z,19.00
2022-08-21T03:10:42.553Z,19.00
2022-08-21T03:13:09.755Z,19.00
2022-08-21T03:15:36.953Z,19.00
2022-08-21T03:18:06.010Z,18.90
2022-08-21T03:20:34.158Z,18.90
2022-08-21T03:23:02.460Z,18.90
2022-08-21T03:25:40.506Z,18.80
2022-08-21T03:28:13.360Z,18.90
2022-08-21T03:30:45.159Z,18.90
2022-08-21T03:33:15.573Z,18.90
2022-08-21T03:35:45.134Z,18.80
2022-08-21T03:38:13.776Z,18.80
2022-08-21T03:40:41.158Z,18.80
2022-08-21T03:43:09.993Z,18.80
2022-08-21T03:45:37.014Z,18.70
2022-08-21T03:48:05.823Z,18.70
2022-08-21T03:50:35.115Z,18.70
2022-08-21T03:53:16.618Z,18.70
2022-08-21T03:55:47.781Z,18.60
2022-08-21T03:58:17.726Z,18.60
2022-08-21T04:00:50.438Z,18.60
2022-08-21T04:03:17.931Z,18.50
2022-08-21T04:05:46.483Z,18.50
2022-08-21T04:08:14.785Z,18.50
2022-08-21T04:10:44.130Z,18.40
2022-08-21T04:13:10.907Z,18.40
2022-08-21T04:15:37.841Z,18.40
2022-08-21T04:18:05.485Z,18.40
2022-08-21T04:20:32.246Z,18.40
2022-08-21T04:22:59.174Z,18.40
2022-08-21T04:25:28.828Z,18.40
2022-08-21T04:27:56.039Z,18.40
2022-08-21T04:30:28.447Z,18.40
2022-08-21T04:32:56.945Z,18.40
2022-08-21T04:35:24.998Z,18.40
2022-08-21T04:37:52.026Z,18.40
2022-08-21T04:40:20.860Z,18.40
2022-08-21T04:42:50.627Z,18.40
2022-08-21T04:45:22.149Z,18.30
2022-08-21T04:47:57.419Z,18.40
2022-08-21T04:50:48.750Z,18.30
2022-08-21T04:53:21.083Z,18.40
2022-08-21T04:55:48.848Z,18.50
2022-08-21T04:58:20.013Z,18.40
2022-08-21T05:00:47.941Z,18.50
2022-08-21T05:03:17.440Z,18.50
2022-08-21T05:05:44.469Z,18.40
2022-08-21T05:08:15.378Z,18.50
2022-08-21T05:10:43.339Z,18.40
2022-08-21T05:13:10.843Z,18.50
2022-08-21T05:15:38.327Z,18.50
2022-08-21T05:18:05.413Z,18.50
2022-08-21T05:20:32.290Z,18.40
2022-08-21T05:22:59.121Z,18.50
2022-08-21T05:25:26.098Z,18.40
2022-08-21T05:27:55.085Z,18.50
2022-08-21T05:30:24.860Z,18.50
2022-08-21T05:33:00.937Z,18.50
2022-08-21T05:35:29.831Z,18.50
2022-08-21T05:37:57.649Z,18.50
2022-08-21T05:40:24.861Z,18.50
2022-08-21T05:42:54.486Z,18.50
2022-08-21T05:45:41.578Z,18.60
2022-08-21T05:48:10.257Z,18.60
2022-08-21T05:50:38.785Z,18.60
2022-08-21T05:53:07.516Z,18.70
2022-08-21T05:55:34.733Z,18.70
2022-08-21T05:58:01.605Z,18.80
2022-08-21T06:00:28.468Z,18.80
2022-08-21T06:02:55.312Z,18.80
2022-08-21T06:05:33.451Z,18.90
2022-08-21T06:08:04.692Z,19.00
2022-08-21T06:10:31.426Z,19.00
2022-08-21T06:12:58.277Z,19.10
2022-08-21T06:15:25.164Z,19.10
2022-08-21T06:17:53.032Z,19.10
2022-08-21T06:20:20.335Z,19.20
2022-08-21T06:22:47.034Z,19.20
2022-08-21T06:25:13.769Z,19.30
2022-08-21T06:27:40.603Z,19.30
2022-08-21T06:30:08.397Z,19.40
2022-08-21T06:32:35.938Z,19.40
2022-08-21T06:35:02.742Z,19.50
2022-08-21T06:37:30.115Z,19.50
2022-08-21T06:39:56.978Z,19.60
2022-08-21T06:42:28.074Z,19.60
2022-08-21T06:44:54.963Z,19.70
2022-08-21T06:47:21.701Z,19.80
2022-08-21T06:49:48.386Z,19.80
2022-08-21T06:52:16.311Z,19.90
2022-08-21T06:54:43.244Z,19.90
2022-08-21T06:57:10.297Z,20.00
2022-08-21T06:59:37.102Z,20.00
2022-08-21T07:02:04.539Z,20.10
2022-08-21T07:04:31.559Z,20.20
2022-08-21T07:06:58.308Z,20.30
2022-08-21T07:09:25.166Z,20.30
2022-08-21T07:11:54.988Z,20.30
2022-08-21T07:14:22.331Z,20.40
2022-08-21T07:16:51.666Z,20.40
2022-08-21T07:19:18.807Z,20.50
2022-08-21T07:21:46.019Z,20.50
2022-08-21T07:24:12.959Z,20.60
2022-08-21T07:26:39.805Z,20.60
2022-08-21T07:29:06.589Z,20.60
2022-08-21T07:31:33.399Z,20.70
2022-08-21T07:34:00.195Z,20.80
2022-08-21T07:36:27.044Z,20.80
2022-08-21T07:38:54.068Z,20.90
2022-08-21T07:41:27.423Z,20.90
2022-08-21T07:43:54.162Z,21.00
2022-08-21T07:46:21.519Z,21.00
2022-08-21T07:48:48.325Z,21.10
2022-08-21T07:51:17.534Z,21.10
2022-08-21T07:53:50.464Z,21.20
2022-08-21T07:56:17.697Z,21.20
2022-08-21T07:58:47.244Z,21.30
2022-08-21T08:01:14.657Z,21.30
2022-08-21T08:03:41.948Z,21.40
2022-08-21T08:06:13.104Z,21.50
2022-08-21T08:08:41.590Z,21.50
2022-08-21T08:11:11.717Z,21.60
2022-08-21T08:13:44.736Z,21.60
2022-08-21T08:16:11.626Z,21.70
2022-08-21T08:18:38.619Z,21.80
2022-08-21T08:21:06.375Z,21.80
2022-08-21T08:23:33.958Z,21.90
2022-08-21T08:26:03.413Z,22.00
2022-08-21T08:28:32.666Z,22.00
2022-08-21T08:31:01.117Z,22.00
2022-08-21T08:33:28.508Z,22.00
2022-08-21T08:35:55.371Z,22.10
2022-08-21T08:38:24.723Z,22.20
2022-08-21T08:40:57.262Z,22.20
2022-08-21T08:43:24.198Z,22.30
2022-08-21T08:45:53.044Z,22.30
2022-08-21T08:48:53.098Z,22.30
2022-08-21T08:52:00.580Z,22.40
2022-08-21T08:54:56.496Z,22.40
2022-08-21T08:57:25.486Z,22.50
2022-08-21T08:59:56.457Z,22.50
2022-08-21T09:02:28.666Z,22.60
2022-08-21T09:04:56.509Z,22.70
2022-08-21T09:07:40.538Z,22.80
2022-08-21T09:10:08.448Z,22.80
2022-08-21T09:12:55.802Z,22.80
2022-08-21T09:15:57.112Z,22.90
2022-08-21T09:18:54.594Z,22.90
2022-08-21T09:21:49.070Z,23.00
2022-08-21T09:25:03.818Z,23.00
2022-08-21T09:27:32.534Z,23.10
2022-08-21T09:29:59.603Z,23.20
2022-08-21T09:32:36.683Z,23.20
2022-08-21T09:35:15.085Z,23.30
2022-08-21T09:37:50.399Z,23.40
2022-08-21T09:40:38.802Z,23.40
2022-08-21T09:43:19.775Z,23.50
2022-08-21T09:45:48.412Z,23.50
2022-08-21T09:48:27.068Z,23.60
2022-08-21T09:51:17.568Z,23.70
2022-08-21T09:53:48.823Z,23.80
2022-08-21T09:56:45.792Z,23.90
2022-08-21T09:59:36.512Z,24.00
2022-08-21T10:02:20.844Z,24.10
2022-08-21T10:05:03.571Z,24.20
2022-08-21T10:07:32.952Z,24.20
2022-08-21T10:10:15.675Z,24.30
2022-08-21T10:13:09.568Z,24.30
2022-08-21T10:16:01.223Z,24.40
2022-08-21T10:18:40.081Z,24.50
2022-08-21T10:21:13.479Z,24.60
2022-08-21T10:23:55.454Z,24.70
2022-08-21T10:26:27.997Z,24.70
2022-08-21T10:29:06.641Z,24.80
2022-08-21T10:32:17.311Z,25.00
2022-08-21T10:35:15.082Z,25.00
2022-08-21T10:38:46.330Z,25.10
2022-08-21T10:41:07.994Z,25.20
2022-08-21T10:43:55.424Z,25.30
2022-08-21T10:46:50.957Z,25.40
2022-08-21T10:49:22.033Z,25.50
2022-08-21T10:52:19.956Z,25.60
2022-08-21T10:55:13.677Z,25.80
2022-08-21T10:57:51.839Z,25.90
2022-08-21T11:00:23.337Z,26.10
2022-08-21T11:03:05.296Z,26.30
2022-08-21T11:05:55.612Z,26.40
2022-08-21T11:08:39.086Z,26.50
2022-08-21T11:11:13.775Z,26.60
2022-08-21T11:13:55.068Z,26.90
2022-08-21T11:16:50.004Z,27.00
2022-08-21T11:19:34.273Z,27.10
2022-08-21T11:22:24.725Z,27.30
2022-08-21T11:25:09.415Z,27.50
2022-08-21T11:27:43.133Z,27.60
2022-08-21T11:30:10.942Z,27.60
2022-08-21T11:32:58.713Z,27.70
2022-08-21T11:36:05.124Z,27.70
2022-08-21T11:38:41.175Z,27.80
2022-08-21T11:41:31.246Z,27.90
2022-08-21T11:44:05.319Z,28.10
2022-08-21T11:46:41.235Z,28.10
2022-08-21T11:49:29.099Z,28.30
2022-08-21T11:52:14.597Z,28.40
2022-08-21T11:55:01.654Z,28.40
2022-08-21T11:57:42.808Z,28.40
2022-08-21T12:00:30.309Z,28.50
2022-08-21T12:03:07.293Z,28.70
2022-08-21T12:05:38.854Z,28.90
2022-08-21T12:08:16.555Z,29.00
2022-08-21T12:11:01.327Z,29.20
2022-08-21T12:13:36.751Z,29.30
2022-08-21T12:16:08.565Z,29.40
2022-08-21T12:18:35.832Z,29.60
2022-08-21T12:21:22.501Z,29.70
2022-08-21T12:24:05.191Z,29.90
2022-08-21T12:26:58.364Z,30.00
2022-08-21T12:29:36.933Z,30.00
2022-08-21T12:32:31.281Z,30.10
2022-08-21T12:35:25.078Z,30.20
2022-08-21T12:38:07.443Z,30.40
2022-08-21T12:40:44.548Z,30.60
2022-08-21T12:43:26.158Z,30.80
2022-08-21T12:45:53.407Z,30.90
2022-08-21T12:48:20.128Z,31.00
2022-08-21T12:51:07.493Z,31.10
2022-08-21T12:53:49.413Z,31.30
2022-08-21T12:56:21.943Z,31.50
2022-08-21T12:58:52.370Z,31.60
2022-08-21T13:01:29.899Z,31.60
2022-08-21T13:04:04.774Z,31.80
2022-08-21T13:06:39.092Z,31.80
2022-08-21T13:09:10.824Z,31.80
2022-08-21T13:11:40.384Z,32.00
2022-08-21T13:14:31.349Z,32.10
2022-08-21T13:16:59.877Z,32.30
2022-08-21T13:19:27.455Z,32.20
2022-08-21T13:21:54.473Z,32.20
2022-08-21T13:24:43.581Z,32.10
2022-08-21T13:27:40.292Z,32.20
2022-08-21T13:30:14.622Z,32.10
2022-08-21T13:32:44.861Z,32.10
2022-08-21T13:35:21.987Z,32.10
2022-08-21T13:37:52.000Z,32.20
2022-08-21T13:40:33.666Z,32.30
2022-08-21T13:43:01.721Z,32.20
2022-08-21T13:45:33.653Z,32.40
2022-08-21T13:48:06.644Z,32.60
2022-08-21T13:50:43.495Z,32.70
2022-08-21T13:53:41.435Z,32.80
2022-08-21T13:56:08.293Z,32.80
2022-08-21T13:58:45.238Z,32.90
2022-08-21T14:01:24.093Z,32.90
2022-08-21T14:03:53.974Z,33.10
2022-08-21T14:06:24.223Z,33.20
2022-08-21T14:08:58.903Z,33.30
2022-08-21T14:11:26.930Z,33.40
2022-08-21T14:14:04.794Z,33.50
2022-08-21T14:16:47.269Z,33.60
2022-08-21T14:19:24.612Z,33.60
2022-08-21T14:21:51.484Z,33.60
2022-08-21T14:24:31.078Z,33.60
2022-08-21T14:27:06.029Z,33.50
2022-08-21T14:29:42.062Z,33.60
2022-08-21T14:32:21.759Z,33.70
2022-08-21T14:34:51.595Z,33.60
2022-08-21T14:37:18.930Z,33.60
2022-08-21T14:39:46.634Z,33.60
2022-08-21T14:42:13.954Z,33.50
2022-08-21T14:44:40.646Z,33.40
2022-08-21T14:47:08.811Z,33.30
2022-08-21T14:49:35.477Z,33.20
2022-08-21T14:52:02.199Z,33.20
2022-08-21T14:54:31.394Z,33.20
2022-08-21T14:57:06.597Z,33.10
2022-08-21T14:59:34.130Z,33.10
2022-08-21T15:02:01.666Z,33.10
2022-08-21T15:04:28.426Z,33.10
2022-08-21T15:06:55.112Z,33.10
2022-08-21T15:09:22.022Z,33.00
2022-08-21T15:11:48.830Z,32.90
2022-08-21T15:14:23.295Z,32.90
2022-08-21T15:16:51.104Z,32.90
2022-08-21T15:19:17.923Z,32.90
2022-08-21T15:21:44.608Z,32.90
2022-08-21T15:24:11.282Z,32.90
2022-08-21T15:26:37.884Z,32.90
2022-08-21T15:29:06.803Z,32.80
2022-08-21T15:31:33.789Z,32.70
2022-08-21T15:34:00.526Z,32.70
2022-08-21T15:36:27.190Z,32.60
2022-08-21T15:38:53.829Z,32.60
2022-08-21T15:41:20.530Z,32.50
2022-08-21T15:43:49.423Z,32.40
2022-08-21T15:46:17.309Z,32.30
2022-08-21T15:48:44.216Z,32.30
2022-08-21T15:51:11.837Z,32.20
2022-08-21T15:53:40.887Z,32.10
2022-08-21T15:56:12.554Z,32.10
2022-08-21T15:58:39.550Z,32.10
2022-08-21T16:01:06.294Z,32.10
2022-08-21T16:03:33.854Z,32.00
2022-08-21T16:06:00.528Z,32.00
2022-08-21T16:08:27.528Z,31.90
2022-08-21T16:10:55.437Z,31.90
2022-08-21T16:13:25.793Z,31.80
2022-08-21T16:15:52.905Z,31.70
2022-08-21T16:18:20.770Z,31.70
2022-08-21T16:20:47.496Z,31.60
2022-08-21T16:23:14.266Z,31.40
2022-08-21T16:25:41.348Z,31.30
2022-08-21T16:28:10.388Z,31.20
2022-08-21T16:30:39.799Z,31.00
2022-08-21T16:33:06.767Z,30.90
2022-08-21T16:35:33.550Z,30.70
2022-08-21T16:38:00.499Z,30.60
2022-08-21T16:40:28.529Z,30.40
2022-08-21T16:42:56.281Z,30.30
2022-08-21T16:45:22.995Z,30.10
2022-08-21T16:47:49.825Z,30.00
2022-08-21T16:50:19.408Z,29.90
2022-08-21T16:52:46.054Z,29.80
2022-08-21T16:55:12.784Z,29.70
2022-08-21T16:57:39.577Z,29.70
2022-08-21T17:00:11.919Z,29.50
2022-08-21T17:02:40.350Z,29.40
2022-08-21T17:05:12.933Z,29.30
2022-08-21T17:07:41.540Z,29.20
2022-08-21T17:10:08.945Z,29.10
2022-08-21T17:12:36.022Z,29.00
2022-08-21T17:15:06.093Z,28.80
2022-08-21T17:17:35.720Z,28.80
2022-08-21T17:20:03.057Z,28.80
2022-08-21T17:22:29.758Z,28.70
2022-08-21T17:24:56.386Z,28.60
2022-08-21T17:27:26.807Z,28.50
2022-08-21T17:29:55.045Z,28.50
2022-08-21T17:32:21.784Z,28.40
2022-08-21T17:34:48.511Z,28.40
2022-08-21T17:37:15.290Z,28.30
2022-08-21T17:39:42.074Z,28.30
2022-08-21T17:42:10.705Z,28.20
2022-08-21T17:44:38.838Z,28.20
2022-08-21T17:47:06.689Z,28.10
2022-08-21T17:49:33.636Z,28.10
2022-08-21T17:52:00.490Z,28.00
2022-08-21T17:54:27.599Z,28.00
2022-08-21T17:56:55.432Z,27.90
2022-08-21T17:59:23.123Z,27.90
2022-08-21T18:01:50.090Z,27.80
2022-08-21T18:04:16.795Z,27.80
2022-08-21T19:49:56.631Z,25.00
2022-08-21T19:52:23.399Z,25.10
2022-08-21T19:54:51.416Z,25.10
2022-08-21T19:57:18.558Z,25.10
2022-08-21T19:59:45.819Z,25.10
2022-08-21T20:02:13.968Z,25.10
2022-08-21T20:07:27.476Z,25.10
2022-08-21T20:09:54.636Z,25.10
2022-08-21T20:12:22.339Z,25.10
2022-08-21T20:14:50.011Z,25.10
2022-08-21T20:17:17.559Z,25.10
2022-08-21T20:19:44.984Z,25.00
2022-08-21T20:22:12.249Z,25.00
2022-08-21T20:24:39.532Z,24.90
2022-08-21T20:27:08.572Z,24.80
2022-08-21T20:32:22.891Z,24.80
2022-08-21T20:34:52.155Z,24.80
2022-08-21T20:37:35.841Z,24.70
2022-08-21T20:40:07.784Z,24.70
2022-08-21T20:42:34.525Z,24.60
2022-08-21T20:45:04.417Z,24.60
2022-08-21T20:47:36.273Z,24.60
2022-08-21T20:50:08.221Z,24.60
2022-08-21T20:52:39.348Z,24.60
2022-08-21T20:55:15.151Z,24.60
2022-08-21T20:57:51.062Z,24.50
2022-08-21T21:00:19.628Z,24.50
2022-08-21T21:03:04.960Z,24.40
2022-08-21T21:05:47.622Z,24.30
2022-08-21T21:08:18.667Z,24.20
2022-08-21T21:10:51.854Z,24.10
2022-08-21T21:13:34.092Z,24.10
2022-08-21T21:16:15.229Z,24.10
2022-08-21T21:18:46.620Z,24.00
2022-08-21T21:21:17.169Z,24.00
2022-08-21T21:23:43.907Z,23.90
2022-08-21T21:26:48.922Z,23.90
2022-08-21T21:29:29.848Z,23.80
2022-08-21T21:31:56.882Z,23.70
2022-08-21T21:34:24.209Z,23.60
2022-08-21T21:36:56.519Z,23.60
2022-08-21T21:39:26.285Z,23.50
2022-08-21T21:42:05.598Z,23.50
2022-08-21T21:44:38.156Z,23.40
2022-08-21T21:47:09.448Z,23.40
2022-08-21T21:49:42.690Z,23.30
2022-08-21T21:52:38.650Z,23.20
2022-08-21T21:55:05.375Z,23.20
2022-08-21T21:57:49.534Z,23.10
2022-08-21T22:00:21.933Z,23.10
2022-08-21T22:02:58.717Z,23.10
2022-08-21T22:05:31.379Z,23.00
2022-08-21T22:08:01.863Z,23.00
2022-08-21T22:13:45.757Z,23.00
2022-08-21T22:16:13.004Z,22.90
2022-08-21T22:18:45.123Z,22.90
2022-08-21T22:21:17.174Z,22.80
2022-08-21T22:23:47.049Z,22.80
2022-08-21T22:26:16.599Z,22.80
2022-08-21T22:28:45.307Z,22.70
2022-08-21T22:31:26.240Z,22.70
2022-08-21T22:34:17.654Z,22.60
2022-08-21T22:36:46.970Z,22.60
2022-08-21T22:39:26.541Z,22.60
2022-08-21T22:41:53.215Z,22.50
2022-08-21T22:44:22.440Z,22.50
2022-08-21T22:49:47.040Z,22.40
2022-08-21T22:52:21.587Z,22.40
2022-08-21T22:54:51.524Z,22.40
2022-08-21T22:57:30.476Z,22.30
2022-08-21T23:00:01.730Z,22.30
2022-08-21T23:02:42.024Z,22.30
2022-08-21T23:05:20.663Z,22.30
2022-08-21T23:07:49.899Z,22.30
2022-08-21T23:10:19.854Z,22.30
2022-08-21T23:12:50.826Z,22.20
2022-08-21T23:15:21.322Z,22.20
2022-08-21T23:17:52.197Z,22.20
2022-08-21T23:20:37.435Z,22.30
2022-08-21T23:23:04.329Z,22.20
2022-08-21T23:25:34.118Z,22.20
2022-08-21T23:28:16.145Z,22.20
2022-08-21T23:31:22.727Z,22.20
2022-08-21T23:34:07.290Z,22.10
2022-08-21T23:36:57.907Z,22.20
2022-08-21T23:39:53.960Z,22.10
2022-08-21T23:42:43.910Z,22.20
2022-08-21T23:45:32.880Z,22.10
2022-08-21T23:48:03.425Z,22.10
2022-08-21T23:50:44.826Z,22.10
2022-08-21T23:53:17.606Z,22.00
2022-08-21T23:55:55.110Z,22.00
2022-08-21T23:58:29.438Z,22.00
